Time;durP1;ratioP1;P1;durP2;ratioP2;P2;SDS_P1;SDS_P2;PMS_P1;PMS_P2;Temp;Humidity;BMP_temperature;BMP_pressure;BME280_temperature;BME280_humidity;BME280_pressure;Samples;Min_cycle;Max_cycle;Signal;HPM_P1;HPM_P2
2023/02/11 00:00:47;;;;;;;31.27;23.00;;;6.20;99.90;;;;;;5071996;28;21252;-77
2023/02/11 00:03:21;;;;;;;32.80;23.47;;;6.20;99.90;;;;;;5079564;28;20472;-76
2023/02/11 00:06:09;;;;;;;33.87;21.93;;;6.20;99.90;;;;;;5080690;28;22144;-75
2023/02/11 00:08:45;;;;;;;30.57;21.00;;;6.20;99.90;;;;;;5078393;28;20493;-75
2023/02/11 00:11:24;;;;;;;31.03;22.67;;;6.30;99.90;;;;;;5085772;28;20492;-77
2023/02/11 00:13:56;;;;;;;34.53;22.40;;;6.30;99.90;;;;;;5077379;28;20979;-76
2023/02/11 00:16:24;;;;;;;31.10;20.77;;;6.20;99.90;;;;;;5069079;28;20984;-77
2023/02/11 00:19:00;;;;;;;32.20;21.03;;;6.20;99.90;;;;;;5075716;28;20873;-76
2023/02/11 00:21:30;;;;;;;26.30;20.53;;;6.30;99.90;;;;;;5074833;28;20501;-76
2023/02/11 00:24:03;;;;;;;30.20;21.77;;;6.30;99.90;;;;;;5080081;28;20479;-76
2023/02/11 00:26:34;;;;;;;27.80;20.70;;;6.30;99.90;;;;;;5078173;28;20466;-76
2023/02/11 00:29:12;;;;;;;30.67;20.70;;;6.20;99.90;;;;;;5072049;28;20488;-76
2023/02/11 00:31:46;;;;;;;28.63;20.80;;;6.30;99.90;;;;;;5073935;28;20487;-75
2023/02/11 00:34:16;;;;;;;29.67;20.77;;;6.30;99.90;;;;;;5082388;28;20464;-76
2023/02/11 00:36:48;;;;;;;32.70;20.73;;;6.30;99.90;;;;;;5075781;28;20469;-75
2023/02/11 00:39:20;;;;;;;30.37;20.40;;;6.30;99.90;;;;;;5079617;28;21042;-76
2023/02/11 00:41:52;;;;;;;31.97;20.70;;;6.30;99.90;;;;;;5073429;28;20500;-76
2023/02/11 00:44:47;;;;;;;31.20;20.07;;;6.20;99.90;;;;;;5071141;28;20472;-77
2023/02/11 00:47:23;;;;;;;32.30;21.43;;;6.30;99.90;;;;;;5081168;28;20557;-77
2023/02/11 00:50:03;;;;;;;27.40;20.90;;;6.30;99.90;;;;;;5071988;28;20501;-77
2023/02/11 00:52:37;;;;;;;32.30;21.80;;;6.30;99.90;;;;;;5084610;28;20516;-77
2023/02/11 00:55:16;;;;;;;34.17;22.03;;;6.20;99.90;;;;;;5064804;28;20479;-77
2023/02/11 00:58:16;;;;;;;30.27;21.93;;;6.20;99.90;;;;;;5079921;28;20472;-76
2023/02/11 01:00:50;;;;;;;35.07;21.43;;;6.20;99.90;;;;;;5077113;28;20991;-76
2023/02/11 01:03:28;;;;;;;34.73;21.53;;;6.20;99.90;;;;;;5075023;28;20490;-75
2023/02/11 01:06:06;;;;;;;35.60;21.80;;;6.20;99.90;;;;;;5065510;28;20461;-76
2023/02/11 01:08:45;;;;;;;30.37;22.20;;;6.30;99.90;;;;;;5060157;28;20481;-77
2023/02/11 01:11:18;;;;;;;31.23;21.13;;;6.20;99.90;;;;;;5057670;28;20501;-75
2023/02/11 01:14:02;;;;;;;34.07;22.10;;;6.20;99.90;;;;;;5064501;28;20466;-76
2023/02/11 01:16:49;;;;;;;29.40;20.50;;;6.30;99.90;;;;;;5059958;28;20574;-76
2023/02/11 01:19:17;;;;;;;33.80;21.80;;;6.20;99.90;;;;;;5048870;28;20499;-76
2023/02/11 01:21:52;;;;;;;35.57;22.40;;;6.20;99.90;;;;;;5054063;28;20498;-75
2023/02/11 01:24:23;;;;;;;33.03;23.10;;;6.30;99.90;;;;;;5057827;28;20477;-75
2023/02/11 01:26:52;;;;;;;34.73;23.40;;;6.30;99.90;;;;;;5056610;28;21488;-75
2023/02/11 01:29:25;;;;;;;33.00;20.97;;;6.30;99.90;;;;;;5064630;28;20483;-77
2023/02/11 01:32:11;;;;;;;34.67;22.80;;;6.30;99.90;;;;;;5056650;28;20492;-76
2023/02/11 01:34:41;;;;;;;37.83;22.53;;;6.30;99.90;;;;;;5073985;28;20465;-77
2023/02/11 01:37:11;;;;;;;29.80;21.27;;;6.30;99.90;;;;;;5068306;28;20469;-77
2023/02/11 01:40:01;;;;;;;36.53;23.43;;;6.30;99.90;;;;;;5064149;28;20528;-76
2023/02/11 01:42:36;;;;;;;31.30;22.70;;;6.30;99.90;;;;;;5062315;28;20489;-77
2023/02/11 01:45:46;;;;;;;31.80;22.47;;;6.30;99.90;;;;;;5057378;28;20835;-75
2023/02/11 01:48:24;;;;;;;30.97;21.90;;;6.30;99.90;;;;;;5061532;28;20476;-76
2023/02/11 01:51:05;;;;;;;30.77;22.80;;;6.30;99.90;;;;;;5049207;28;20465;-75
2023/02/11 01:59:28;;;;;;;33.80;23.80;;;6.40;99.90;;;;;;5021583;28;20573;-76
2023/02/11 02:02:08;;;;;;;40.27;24.00;;;6.40;99.90;;;;;;5047703;28;20585;-75
2023/02/11 02:04:46;;;;;;;34.30;23.10;;;6.40;99.90;;;;;;5075446;28;20477;-76
2023/02/11 02:07:36;;;;;;;33.43;23.10;;;6.40;99.90;;;;;;5070645;28;20461;-76
2023/02/11 02:10:15;;;;;;;33.60;22.70;;;6.40;99.90;;;;;;5083099;28;21025;-77
2023/02/11 02:12:59;;;;;;;34.87;24.17;;;6.40;99.90;;;;;;5086093;28;20491;-76
2023/02/11 02:15:33;;;;;;;29.27;21.97;;;6.40;99.90;;;;;;5087236;28;20716;-77
2023/02/11 02:18:20;;;;;;;32.37;22.97;;;6.40;99.90;;;;;;5086231;28;20846;-75
2023/02/11 02:21:29;;;;;;;33.90;23.70;;;6.40;99.90;;;;;;5079167;28;20472;-75
2023/02/11 02:24:44;;;;;;;31.33;23.50;;;6.30;99.90;;;;;;5076468;28;20496;-75
2023/02/11 02:27:39;;;;;;;31.47;21.83;;;6.40;99.90;;;;;;5076840;28;20526;-76
2023/02/11 02:30:49;;;;;;;28.57;21.53;;;6.40;99.90;;;;;;5055710;28;20480;-76
2023/02/11 02:33:44;;;;;;;28.93;21.63;;;6.40;99.90;;;;;;5084861;28;21148;-76
2023/02/11 02:36:19;;;;;;;31.83;22.07;;;6.40;99.90;;;;;;5075878;28;21608;-77
2023/02/11 02:38:56;;;;;;;33.90;22.43;;;6.50;99.90;;;;;;5078473;28;20487;-77
2023/02/11 02:41:30;;;;;;;30.37;20.03;;;6.50;99.90;;;;;;5077488;28;20567;-76
2023/02/11 02:44:05;;;;;;;28.67;19.87;;;6.50;99.90;;;;;;5081906;28;20472;-76
2023/02/11 02:46:39;;;;;;;32.97;20.70;;;6.50;99.90;;;;;;5084060;28;22416;-77
2023/02/11 02:49:19;;;;;;;29.30;20.00;;;6.50;99.90;;;;;;5078046;28;20553;-76
2023/02/11 02:52:15;;;;;;;32.13;20.57;;;6.50;99.90;;;;;;5083787;28;20524;-76
2023/02/11 02:55:21;;;;;;;27.87;20.47;;;6.50;99.90;;;;;;5079064;28;21275;-77
2023/02/11 02:58:19;;;;;;;29.50;19.70;;;6.50;99.90;;;;;;5086022;28;20932;-75
2023/02/11 03:01:02;;;;;;;28.63;20.33;;;6.60;99.90;;;;;;5073157;28;20461;-76
2023/02/11 03:03:43;;;;;;;29.30;19.50;;;6.60;99.90;;;;;;5083073;28;20491;-76
2023/02/11 03:06:24;;;;;;;23.50;18.20;;;6.60;99.90;;;;;;5075981;28;21055;-76
2023/02/11 03:09:12;;;;;;;27.80;19.07;;;6.60;99.90;;;;;;5078283;28;20885;-76
2023/02/11 03:11:45;;;;;;;28.70;19.20;;;6.60;99.90;;;;;;5079667;28;20488;-77
2023/02/11 03:14:21;;;;;;;26.27;18.77;;;6.60;99.90;;;;;;5072322;28;20464;-75
2023/02/11 03:16:54;;;;;;;24.93;18.30;;;6.60;99.90;;;;;;5077077;28;20465;-77
2023/02/11 03:19:30;;;;;;;27.00;19.30;;;6.60;99.90;;;;;;5086865;28;20476;-77
2023/02/11 03:22:16;;;;;;;24.60;18.53;;;6.60;99.90;;;;;;5076426;28;20488;-77
2023/02/11 03:24:55;;;;;;;27.07;19.00;;;6.60;99.90;;;;;;5083146;28;20468;-76
2023/02/11 03:27:44;;;;;;;25.20;17.77;;;6.60;99.90;;;;;;5081953;28;20559;-78
2023/02/11 03:30:20;;;;;;;29.90;18.50;;;6.60;99.90;;;;;;5071947;28;20473;-77
2023/02/11 03:32:55;;;;;;;27.60;18.73;;;6.60;99.90;;;;;;5081730;28;20869;-76
2023/02/11 03:35:41;;;;;;;27.47;18.13;;;6.60;99.90;;;;;;5081466;28;20474;-76
2023/02/11 03:38:23;;;;;;;27.67;18.57;;;6.60;99.90;;;;;;5073637;28;20493;-78
2023/02/11 03:41:00;;;;;;;28.73;18.30;;;6.70;99.90;;;;;;5083711;28;20848;-77
2023/02/11 03:43:35;;;;;;;26.47;18.77;;;6.60;99.90;;;;;;5080139;28;22262;-77
2023/02/11 03:46:06;;;;;;;25.67;18.13;;;6.70;99.90;;;;;;5085913;28;20467;-76
2023/02/11 03:48:40;;;;;;;25.13;18.67;;;6.70;99.90;;;;;;5080056;28;20496;-77
2023/02/11 03:51:23;;;;;;;26.67;17.70;;;6.70;99.90;;;;;;5080181;28;21011;-77
2023/02/11 03:54:04;;;;;;;28.43;17.87;;;6.70;99.90;;;;;;5081389;28;20480;-77
2023/02/11 03:56:47;;;;;;;27.47;18.10;;;6.70;99.90;;;;;;5078845;28;22082;-77
2023/02/11 03:59:19;;;;;;;27.50;16.60;;;6.70;99.90;;;;;;5076380;28;20489;-77
2023/02/11 04:01:47;;;;;;;24.73;17.13;;;6.80;99.90;;;;;;5084832;28;20493;-77
2023/02/11 04:04:17;;;;;;;24.50;16.50;;;6.80;99.90;;;;;;5081771;28;20484;-77
2023/02/11 04:06:59;;;;;;;24.90;15.70;;;6.80;99.90;;;;;;5086819;28;20460;-77
2023/02/11 04:09:38;;;;;;;25.50;16.37;;;6.80;99.90;;;;;;5074575;28;20498;-77
2023/02/11 04:12:26;;;;;;;27.57;16.80;;;6.80;99.90;;;;;;5079209;28;20493;-78
2023/02/11 04:15:06;;;;;;;25.87;16.07;;;6.90;99.90;;;;;;5082883;28;20461;-76
2023/02/11 04:17:37;;;;;;;27.30;15.00;;;6.90;99.90;;;;;;5078799;28;20848;-77
2023/02/11 04:20:12;;;;;;;29.83;15.70;;;6.90;99.90;;;;;;5075094;28;20487;-77
2023/02/11 04:22:50;;;;;;;30.53;15.80;;;6.90;99.90;;;;;;5079021;28;20495;-77
2023/02/11 04:25:26;;;;;;;23.43;15.20;;;6.90;99.90;;;;;;5084097;28;20464;-76
2023/02/11 04:28:10;;;;;;;22.97;15.17;;;7.00;99.90;;;;;;5073326;28;20472;-76
2023/02/11 04:30:43;;;;;;;26.20;15.87;;;7.00;99.90;;;;;;5081407;28;20476;-76
2023/02/11 04:33:19;;;;;;;25.53;14.83;;;7.00;99.90;;;;;;5083285;28;20557;-75
2023/02/11 04:36:05;;;;;;;26.00;15.37;;;7.00;99.90;;;;;;5080625;28;20987;-77
2023/02/11 04:38:37;;;;;;;25.77;14.87;;;7.10;99.90;;;;;;5079547;28;20486;-76
2023/02/11 04:41:07;;;;;;;24.20;15.57;;;7.00;99.90;;;;;;5078601;28;20492;-75
2023/02/11 04:43:39;;;;;;;24.60;14.73;;;7.10;99.90;;;;;;5081448;28;20493;-76
2023/02/11 04:46:21;;;;;;;22.80;14.33;;;7.10;99.90;;;;;;5088717;28;20468;-77
2023/02/11 04:49:02;;;;;;;22.07;14.70;;;7.10;99.90;;;;;;5079385;28;20481;-77
2023/02/11 04:51:32;;;;;;;23.07;14.67;;;7.10;99.90;;;;;;5077465;28;20485;-76
2023/02/11 04:54:02;;;;;;;27.17;15.27;;;7.10;99.90;;;;;;5078230;28;20480;-77
2023/02/11 04:56:36;;;;;;;20.33;13.90;;;7.10;99.90;;;;;;5083613;28;20465;-76
2023/02/11 04:59:13;;;;;;;23.10;14.00;;;7.10;99.90;;;;;;5084134;28;20530;-76
2023/02/11 05:01:45;;;;;;;26.43;13.73;;;7.10;99.90;;;;;;5073636;28;20886;-76
2023/02/11 05:04:24;;;;;;;19.37;13.93;;;7.10;99.90;;;;;;5076883;28;20484;-78
2023/02/11 05:06:59;;;;;;;21.63;13.00;;;7.10;99.90;;;;;;5079257;28;20556;-76
2023/02/11 05:09:36;;;;;;;23.63;14.33;;;7.10;99.90;;;;;;5074023;28;20495;-76
2023/02/11 05:12:10;;;;;;;21.93;14.30;;;7.10;99.90;;;;;;5075876;28;20853;-77
2023/02/11 05:14:47;;;;;;;26.03;15.20;;;7.10;99.90;;;;;;5078837;28;20465;-75
2023/02/11 05:17:27;;;;;;;19.43;14.37;;;7.10;99.90;;;;;;5068618;28;20473;-74
2023/02/11 05:19:59;;;;;;;22.47;13.70;;;7.10;99.90;;;;;;5085220;28;20502;-75
2023/02/11 05:22:30;;;;;;;22.50;14.23;;;7.10;99.90;;;;;;5079539;28;22961;-76
2023/02/11 05:25:04;;;;;;;22.53;13.80;;;7.10;99.90;;;;;;5079812;28;20488;-75
2023/02/11 05:27:50;;;;;;;22.90;15.00;;;7.10;99.90;;;;;;5078844;28;20469;-74
2023/02/11 05:30:18;;;;;;;18.57;14.17;;;7.10;99.90;;;;;;5112416;22;20512;-80
2023/02/11 05:32:50;;;;;;;20.53;14.63;;;7.10;99.90;;;;;;5094946;28;20484;-79
2023/02/11 05:35:27;;;;;;;26.27;14.27;;;7.10;99.90;;;;;;5098763;28;20496;-79
2023/02/11 05:37:56;;;;;;;22.40;14.53;;;7.10;99.90;;;;;;5091434;28;20479;-79
2023/02/11 05:40:31;;;;;;;18.57;13.93;;;7.10;99.90;;;;;;5092762;28;20561;-81
2023/02/11 05:43:09;;;;;;;24.90;14.17;;;7.10;99.90;;;;;;5095584;28;20593;-82
2023/02/11 05:45:42;;;;;;;20.73;13.27;;;7.10;99.90;;;;;;5088756;28;20479;-79
2023/02/11 05:48:11;;;;;;;22.80;13.33;;;7.10;99.90;;;;;;5095469;28;20480;-80
2023/02/11 05:50:48;;;;;;;18.70;12.97;;;7.20;99.90;;;;;;5097475;28;20492;-79
2023/02/11 05:53:19;;;;;;;19.33;12.80;;;7.20;99.90;;;;;;5092447;28;20469;-79
2023/02/11 05:55:52;;;;;;;16.73;12.87;;;7.20;99.90;;;;;;5092724;28;20476;-82
2023/02/11 05:58:32;;;;;;;21.70;13.57;;;7.20;99.90;;;;;;5097166;28;20504;-79
2023/02/11 06:01:02;;;;;;;19.03;13.50;;;7.20;99.90;;;;;;5083386;28;20481;-82
2023/02/11 06:03:36;;;;;;;22.37;12.50;;;7.20;99.90;;;;;;5081268;28;20535;-79
2023/02/11 06:06:11;;;;;;;15.17;11.40;;;7.20;99.90;;;;;;5087433;28;20537;-83
2023/02/11 06:08:44;;;;;;;15.93;12.10;;;7.20;99.90;;;;;;5095952;28;20512;-84
2023/02/11 06:11:16;;;;;;;19.17;12.80;;;7.20;99.90;;;;;;5093352;28;20471;-80
2023/02/11 06:13:51;;;;;;;14.63;11.80;;;7.20;99.90;;;;;;5093302;28;20465;-81
2023/02/11 06:16:26;;;;;;;16.53;11.73;;;7.20;99.90;;;;;;5087642;28;20468;-81
2023/02/11 06:19:00;;;;;;;12.53;10.77;;;7.30;99.90;;;;;;5094706;28;20894;-81
2023/02/11 06:21:31;;;;;;;16.47;10.60;;;7.20;99.90;;;;;;5095804;28;20468;-83
2023/02/11 06:24:10;;;;;;;16.63;10.83;;;7.20;99.90;;;;;;5088339;28;20476;-79
2023/02/11 06:26:41;;;;;;;13.63;11.60;;;7.30;99.90;;;;;;5092572;28;20468;-81
2023/02/11 06:29:26;;;;;;;14.87;10.47;;;7.30;99.90;;;;;;5095904;28;20556;-80
2023/02/11 06:32:08;;;;;;;19.10;12.90;;;7.30;99.90;;;;;;5095052;28;20511;-83
2023/02/11 06:34:58;;;;;;;15.97;10.90;;;7.30;99.90;;;;;;5088057;28;20455;-79
2023/02/11 06:37:33;;;;;;;15.67;11.33;;;7.30;99.90;;;;;;5085994;28;20460;-84
2023/02/11 06:40:06;;;;;;;15.10;11.63;;;7.40;99.90;;;;;;5091108;28;20565;-79
2023/02/11 06:42:39;;;;;;;15.57;11.20;;;7.40;99.90;;;;;;5100427;28;20457;-81
2023/02/11 06:45:25;;;;;;;14.50;11.63;;;7.40;99.90;;;;;;5091849;28;21331;-79
2023/02/11 06:48:06;;;;;;;16.07;11.93;;;7.40;99.90;;;;;;5092989;28;20514;-80
2023/02/11 06:50:39;;;;;;;18.40;11.63;;;7.40;99.90;;;;;;5102668;28;20494;-81
2023/02/11 06:53:15;;;;;;;18.73;12.60;;;7.40;99.90;;;;;;5092048;28;20462;-79
2023/02/11 06:55:45;;;;;;;14.80;11.17;;;7.40;99.90;;;;;;5098664;28;20464;-80
2023/02/11 06:58:31;;;;;;;16.07;12.50;;;7.40;99.90;;;;;;5096605;28;20525;-82
2023/02/11 07:01:16;;;;;;;15.57;11.97;;;7.40;99.90;;;;;;5102080;28;20891;-82
2023/02/11 07:03:52;;;;;;;15.63;12.37;;;7.40;99.90;;;;;;5092641;28;20464;-80
2023/02/11 07:06:36;;;;;;;14.20;12.43;;;7.40;99.90;;;;;;5099308;28;20473;-82
2023/02/11 07:09:09;;;;;;;18.10;12.00;;;7.40;99.90;;;;;;5100781;28;20487;-81
2023/02/11 07:11:40;;;;;;;16.13;12.50;;;7.30;99.90;;;;;;5091609;28;20858;-80
2023/02/11 07:14:13;;;;;;;16.57;12.37;;;7.40;99.90;;;;;;5101859;28;20460;-81
2023/02/11 07:16:53;;;;;;;16.83;11.90;;;7.40;99.90;;;;;;5092974;28;20461;-80
2023/02/11 07:19:27;;;;;;;16.20;11.40;;;7.40;99.90;;;;;;5087962;28;20579;-82
2023/02/11 07:22:03;;;;;;;16.47;12.30;;;7.40;99.90;;;;;;5098854;28;20510;-82
2023/02/11 07:24:39;;;;;;;13.43;11.17;;;7.40;99.90;;;;;;5098080;28;21889;-81
2023/02/11 07:27:09;;;;;;;15.87;11.70;;;7.40;99.90;;;;;;5093164;28;20480;-81
2023/02/11 07:29:44;;;;;;;14.33;11.83;;;7.40;99.90;;;;;;5090924;28;20512;-79
2023/02/11 07:32:18;;;;;;;15.10;12.97;;;7.40;99.90;;;;;;5095026;28;20465;-80
2023/02/11 07:34:50;;;;;;;17.30;12.80;;;7.40;99.90;;;;;;5079475;28;20468;-79
2023/02/11 07:37:27;;;;;;;14.27;12.00;;;7.40;99.90;;;;;;5084929;28;20473;-81
2023/02/11 07:40:00;;;;;;;18.23;12.40;;;7.50;99.90;;;;;;5077775;28;20480;-81
2023/02/11 07:42:30;;;;;;;17.80;12.70;;;7.50;99.90;;;;;;5094745;28;20519;-80
2023/02/11 07:44:58;;;;;;;20.73;13.40;;;7.50;99.90;;;;;;5099043;28;20474;-80
2023/02/11 07:47:48;;;;;;;17.10;12.60;;;7.50;99.90;;;;;;5093098;28;20507;-81
2023/02/11 07:50:24;;;;;;;15.30;12.80;;;7.50;99.90;;;;;;5093470;28;20488;-79
2023/02/11 07:52:58;;;;;;;17.00;12.90;;;7.50;99.90;;;;;;5101994;28;20502;-79
2023/02/11 07:55:33;;;;;;;21.33;13.10;;;7.50;99.90;;;;;;5095662;28;20461;-82
2023/02/11 07:58:15;;;;;;;18.90;12.97;;;7.50;99.90;;;;;;5095822;28;20539;-82
2023/02/11 08:00:44;;;;;;;20.07;13.20;;;7.50;99.90;;;;;;5084864;28;20541;-79
2023/02/11 08:03:14;;;;;;;20.00;13.60;;;7.60;99.90;;;;;;5078673;28;20517;-81
2023/02/11 08:05:42;;;;;;;18.67;13.63;;;7.60;99.90;;;;;;5073018;28;20484;-79
2023/02/11 08:08:12;;;;;;;19.20;12.87;;;7.50;99.90;;;;;;5094772;28;20484;-80
2023/02/11 08:10:44;;;;;;;15.83;13.07;;;7.50;99.90;;;;;;5088276;28;21857;-77
2023/02/11 08:13:11;;;;;;;22.30;13.63;;;7.60;99.90;;;;;;5080203;28;23018;-75
2023/02/11 08:15:40;;;;;;;21.40;14.63;;;7.60;99.90;;;;;;5069028;28;20483;-76
2023/02/11 08:18:10;;;;;;;22.70;14.17;;;7.60;99.90;;;;;;5071471;28;20488;-76
2023/02/11 08:20:41;;;;;;;21.07;15.17;;;7.60;99.90;;;;;;5089142;28;20485;-78
2023/02/11 08:23:11;;;;;;;23.13;13.87;;;7.60;99.90;;;;;;5079951;28;21263;-79
2023/02/11 08:25:39;;;;;;;22.53;14.00;;;7.60;99.90;;;;;;5081307;28;21902;-77
2023/02/11 08:28:08;;;;;;;16.70;13.50;;;7.60;99.90;;;;;;5071971;28;20531;-76
2023/02/11 08:30:38;;;;;;;23.50;15.10;;;7.60;99.90;;;;;;5081096;28;20519;-77
2023/02/11 08:33:10;;;;;;;20.07;14.20;;;7.60;99.90;;;;;;5080081;28;20460;-76
2023/02/11 08:35:39;;;;;;;21.13;15.13;;;7.60;99.90;;;;;;5088536;28;20464;-81
2023/02/11 08:38:10;;;;;;;20.83;15.43;;;7.60;99.90;;;;;;5084244;28;20533;-77
2023/02/11 08:40:38;;;;;;;15.80;12.63;;;7.60;99.90;;;;;;5085121;28;20488;-75
2023/02/11 08:43:11;;;;;;;18.53;13.50;;;7.70;99.90;;;;;;5088688;28;20555;-75
2023/02/11 08:45:39;;;;;;;16.23;12.80;;;7.70;99.90;;;;;;5091157;28;20497;-75
2023/02/11 08:48:07;;;;;;;20.93;13.63;;;7.70;99.90;;;;;;5082628;28;21388;-76
2023/02/11 08:50:37;;;;;;;19.77;13.73;;;7.70;99.90;;;;;;5071841;28;20492;-75
2023/02/11 08:53:05;;;;;;;20.80;13.70;;;7.80;99.90;;;;;;5088151;28;20473;-76
2023/02/11 08:55:37;;;;;;;20.43;14.60;;;7.80;99.90;;;;;;5080929;28;20468;-78
2023/02/11 08:58:05;;;;;;;20.00;12.90;;;7.80;99.90;;;;;;5094548;28;21030;-77
2023/02/11 09:00:38;;;;;;;18.67;13.53;;;7.80;99.90;;;;;;5093549;28;20488;-80
2023/02/11 09:03:06;;;;;;;21.20;13.80;;;7.80;99.90;;;;;;5102666;28;20475;-76
2023/02/11 09:05:41;;;;;;;16.80;13.80;;;7.80;99.90;;;;;;5100724;28;20487;-77
2023/02/11 09:08:10;;;;;;;18.37;13.20;;;7.80;99.90;;;;;;5097391;28;20464;-77
2023/02/11 09:10:44;;;;;;;17.93;13.90;;;7.70;99.90;;;;;;5097382;28;20855;-75
2023/02/11 09:13:15;;;;;;;19.40;12.73;;;7.80;99.90;;;;;;5098722;28;20468;-76
2023/02/11 09:15:49;;;;;;;15.93;11.70;;;7.80;99.90;;;;;;5096041;28;20464;-75
2023/02/11 09:18:20;;;;;;;14.20;11.10;;;7.80;99.90;;;;;;5094191;28;20580;-75
2023/02/11 09:20:48;;;;;;;19.50;12.00;;;7.80;99.90;;;;;;5100290;28;20504;-75
2023/02/11 09:23:17;;;;;;;19.00;13.73;;;7.80;99.90;;;;;;5100273;28;20468;-76
2023/02/11 09:25:46;;;;;;;15.17;11.90;;;7.80;99.90;;;;;;5098943;28;20488;-76
2023/02/11 09:28:14;;;;;;;15.93;11.53;;;7.90;99.90;;;;;;5097632;28;20488;-76
2023/02/11 09:30:42;;;;;;;17.33;12.10;;;7.90;99.90;;;;;;5097820;28;20560;-75
2023/02/11 09:33:10;;;;;;;17.53;12.10;;;7.90;99.90;;;;;;5095391;28;20471;-76
2023/02/11 09:35:38;;;;;;;15.60;11.40;;;7.80;99.90;;;;;;5097924;28;21018;-76
2023/02/11 09:38:06;;;;;;;17.10;12.20;;;7.80;99.90;;;;;;5098118;28;20521;-75
2023/02/11 09:40:34;;;;;;;16.40;11.57;;;7.90;99.90;;;;;;5100112;28;20694;-77
2023/02/11 09:43:08;;;;;;;20.90;12.57;;;7.90;99.90;;;;;;5090505;28;20460;-76
2023/02/11 09:45:36;;;;;;;18.63;11.20;;;7.90;99.90;;;;;;5098034;28;20475;-76
2023/02/11 09:48:13;;;;;;;14.23;10.37;;;8.00;99.90;;;;;;5094542;28;21203;-76
2023/02/11 09:50:46;;;;;;;13.83;10.97;;;8.00;99.90;;;;;;5098005;28;20565;-75
2023/02/11 09:53:23;;;;;;;22.93;9.20;;;8.00;99.90;;;;;;5097826;28;20496;-79
2023/02/11 09:55:55;;;;;;;16.47;9.90;;;8.00;99.90;;;;;;5098048;28;20460;-75
2023/02/11 09:58:27;;;;;;;16.47;10.20;;;8.00;99.90;;;;;;5117035;28;20517;-75
2023/02/11 10:01:06;;;;;;;20.57;9.67;;;8.10;99.90;;;;;;5097102;28;20479;-76
2023/02/11 10:03:48;;;;;;;15.33;9.57;;;8.10;99.90;;;;;;5104347;28;20499;-76
2023/02/11 10:06:36;;;;;;;17.60;9.20;;;8.10;99.90;;;;;;5105621;28;20476;-76
2023/02/11 10:09:36;;;;;;;15.87;9.27;;;8.10;99.90;;;;;;5095652;28;20484;-76
2023/02/11 10:12:27;;;;;;;16.73;9.57;;;8.10;99.90;;;;;;5102364;28;20472;-78
2023/02/11 10:15:08;;;;;;;17.00;9.67;;;8.10;99.90;;;;;;5101333;28;20476;-75
2023/02/11 10:17:42;;;;;;;12.77;9.07;;;8.20;99.90;;;;;;5093479;28;20464;-76
2023/02/11 10:20:29;;;;;;;16.43;9.40;;;8.20;99.90;;;;;;5094625;28;20495;-75
2023/02/11 10:23:02;;;;;;;14.40;8.20;;;8.20;99.90;;;;;;5092134;28;20487;-73
2023/02/11 10:25:37;;;;;;;13.57;7.90;;;8.30;99.90;;;;;;5097921;28;20498;-77
2023/02/11 10:28:15;;;;;;;13.17;8.57;;;8.20;99.90;;;;;;5098239;28;20553;-75
2023/02/11 10:30:58;;;;;;;19.80;8.70;;;8.30;99.90;;;;;;5092955;28;20511;-75
2023/02/11 10:33:31;;;;;;;16.17;8.30;;;8.30;99.90;;;;;;5083211;28;20472;-75
2023/02/11 10:36:02;;;;;;;11.60;8.17;;;8.30;99.90;;;;;;5095971;28;20473;-79
2023/02/11 10:38:31;;;;;;;13.73;7.43;;;8.30;99.90;;;;;;5094912;28;20480;-75
2023/02/11 10:40:59;;;;;;;13.13;7.97;;;8.30;99.90;;;;;;5092713;28;20976;-76
2023/02/11 10:43:30;;;;;;;20.50;7.90;;;8.20;99.90;;;;;;5095974;28;20461;-78
2023/02/11 10:46:02;;;;;;;13.40;8.67;;;8.30;99.90;;;;;;5097607;28;20514;-76
2023/02/11 10:48:39;;;;;;;12.53;6.57;;;8.20;99.90;;;;;;5095774;28;20488;-76
2023/02/11 10:51:17;;;;;;;11.73;7.73;;;8.30;99.90;;;;;;5093676;28;20464;-74
2023/02/11 10:53:50;;;;;;;15.33;7.40;;;8.30;99.90;;;;;;5088444;28;20472;-79
2023/02/11 10:56:27;;;;;;;96.70;38.53;;;8.30;99.90;;;;;;5092564;28;20473;-76
2023/02/11 10:59:00;;;;;;;32.27;13.20;;;8.40;99.90;;;;;;5085866;28;20484;-79
2023/02/11 11:01:41;;;;;;;39.03;17.03;;;8.40;99.90;;;;;;5067878;28;20464;-74
2023/02/11 11:04:33;;;;;;;22.67;12.70;;;8.50;99.90;;;;;;5093140;28;20461;-75
2023/02/11 11:07:21;;;;;;;13.83;7.30;;;8.60;99.90;;;;;;5088830;28;20491;-76
2023/02/11 11:09:52;;;;;;;11.40;6.40;;;8.60;99.90;;;;;;5078379;28;20500;-78
2023/02/11 11:12:30;;;;;;;12.13;6.30;;;8.60;99.90;;;;;;5086231;28;20484;-76
2023/02/11 11:15:00;;;;;;;12.23;6.00;;;8.50;99.90;;;;;;5084217;28;20465;-75
2023/02/11 11:17:30;;;;;;;9.37;5.80;;;8.50;99.90;;;;;;5086584;28;20476;-75
2023/02/11 11:20:15;;;;;;;10.83;6.20;;;8.40;99.90;;;;;;5086860;28;20537;-76
2023/02/11 11:22:44;;;;;;;7.57;5.40;;;8.40;99.90;;;;;;5081330;28;20475;-74
2023/02/11 11:25:24;;;;;;;11.10;5.87;;;8.40;99.90;;;;;;5079001;28;20473;-76
2023/02/11 11:27:54;;;;;;;11.93;5.23;;;8.50;99.90;;;;;;5080625;28;20499;-76
2023/02/11 11:30:26;;;;;;;9.50;5.00;;;8.50;99.90;;;;;;5088753;22;20508;-77
2023/02/11 11:32:56;;;;;;;6.83;4.97;;;8.50;99.90;;;;;;5065501;28;20477;-76
2023/02/11 11:35:26;;;;;;;10.93;5.17;;;8.50;99.90;;;;;;5054280;28;20477;-76
2023/02/11 11:37:57;;;;;;;7.50;4.63;;;8.50;99.90;;;;;;5050667;28;21004;-77
2023/02/11 11:40:30;;;;;;;8.43;5.17;;;8.50;99.90;;;;;;5046384;28;20964;-79
2023/02/11 11:43:19;;;;;;;5.30;4.20;;;8.50;99.90;;;;;;5057389;28;20479;-76
2023/02/11 11:45:55;;;;;;;7.90;4.40;;;8.50;99.90;;;;;;5048835;28;20771;-84
2023/02/11 11:48:27;;;;;;;14.07;5.90;;;8.50;99.90;;;;;;5062459;28;20486;-77
2023/02/11 11:50:59;;;;;;;7.90;4.60;;;8.50;99.90;;;;;;5058590;28;20488;-78
2023/02/11 11:53:37;;;;;;;7.80;5.40;;;8.60;99.90;;;;;;5059352;28;20964;-79
2023/02/11 11:56:08;;;;;;;9.23;5.10;;;8.60;99.90;;;;;;5070979;28;20469;-79
2023/02/11 11:58:37;;;;;;;8.90;5.13;;;8.70;99.90;;;;;;5061736;28;20493;-77
2023/02/11 12:01:20;;;;;;;9.00;4.60;;;8.70;99.90;;;;;;5054324;28;20492;-80
2023/02/11 12:04:12;;;;;;;10.03;4.20;;;8.80;99.90;;;;;;5041605;28;20859;-79
2023/02/11 12:06:49;;;;;;;8.33;4.00;;;8.80;99.90;;;;;;5065101;28;20992;-79
2023/02/11 12:09:26;;;;;;;6.70;4.10;;;8.80;99.90;;;;;;5061153;28;20481;-79
2023/02/11 12:12:14;;;;;;;8.37;4.50;;;8.90;99.90;;;;;;5069336;28;20463;-80
2023/02/11 12:14:52;;;;;;;7.00;5.00;;;8.90;99.90;;;;;;5061029;28;20465;-77
2023/02/11 12:17:36;;;;;;;7.50;4.03;;;8.90;99.90;;;;;;5061458;28;20497;-77
2023/02/11 12:20:24;;;;;;;9.13;4.83;;;8.80;99.90;;;;;;5066574;28;20857;-76
2023/02/11 12:23:05;;;;;;;6.60;3.97;;;8.80;99.90;;;;;;5062739;28;20469;-79
2023/02/11 12:25:40;;;;;;;7.40;4.30;;;8.80;99.90;;;;;;5059711;28;20640;-77
2023/02/11 12:28:20;;;;;;;9.53;4.40;;;8.80;99.90;;;;;;5054423;28;20500;-78
2023/02/11 12:31:04;;;;;;;12.07;5.10;;;8.70;99.90;;;;;;5064225;28;20829;-76
2023/02/11 12:33:51;;;;;;;4.73;3.93;;;8.70;99.90;;;;;;5051952;28;20462;-77
2023/02/11 12:36:32;;;;;;;9.47;4.00;;;8.70;99.90;;;;;;5055688;28;20469;-77
2023/02/11 12:39:16;;;;;;;4.37;3.50;;;8.70;99.90;;;;;;5056992;28;20485;-77
2023/02/11 12:45:08;;;;;;;6.27;3.23;;;8.70;99.90;;;;;;5051543;28;20470;-77
2023/02/11 12:47:47;;;;;;;6.07;3.57;;;8.70;99.90;;;;;;5057761;28;20489;-77
2023/02/11 12:50:23;;;;;;;6.33;3.83;;;8.70;99.90;;;;;;5066204;28;20492;-77
2023/02/11 12:53:05;;;;;;;6.43;3.87;;;8.70;99.90;;;;;;5061861;28;20844;-77
2023/02/11 12:55:37;;;;;;;6.27;3.70;;;8.70;99.90;;;;;;5068776;28;20473;-77
2023/02/11 12:58:10;;;;;;;6.67;4.47;;;8.70;99.90;;;;;;5065595;28;20861;-77
2023/02/11 13:00:45;;;;;;;7.37;3.80;;;8.70;99.90;;;;;;5058452;28;20492;-77
2023/02/11 13:03:19;;;;;;;7.37;4.10;;;8.70;99.90;;;;;;5059321;28;20507;-78
2023/02/11 13:05:52;;;;;;;10.50;4.50;;;8.70;99.90;;;;;;5069883;28;20487;-77
2023/02/11 13:08:30;;;;;;;6.10;3.80;;;8.70;99.90;;;;;;5057256;28;20535;-77
2023/02/11 13:11:01;;;;;;;8.00;4.07;;;8.70;99.90;;;;;;5062402;28;20478;-76
2023/02/11 13:13:34;;;;;;;10.47;4.40;;;8.70;99.90;;;;;;5061259;28;21001;-77
2023/02/11 13:16:06;;;;;;;6.90;4.10;;;8.60;99.90;;;;;;5059145;28;20483;-76
2023/02/11 13:18:49;;;;;;;7.87;4.93;;;8.60;99.90;;;;;;5067346;28;20469;-78
2023/02/11 13:21:33;;;;;;;8.03;4.07;;;8.70;99.90;;;;;;5058004;28;20584;-76
2023/02/11 13:24:15;;;;;;;7.47;3.70;;;8.70;99.90;;;;;;5054609;28;20473;-78
2023/02/11 13:26:48;;;;;;;5.47;4.10;;;8.70;99.90;;;;;;5065466;28;20461;-77
2023/02/11 13:29:31;;;;;;;10.67;4.57;;;8.80;99.90;;;;;;5058283;28;20497;-78
2023/02/11 13:32:07;;;;;;;9.00;3.80;;;8.80;99.90;;;;;;5061863;28;20461;-75
2023/02/11 13:34:58;;;;;;;7.37;3.80;;;8.80;99.90;;;;;;5062721;28;20523;-80
2023/02/11 13:37:34;;;;;;;8.00;4.77;;;8.80;99.90;;;;;;5062382;28;20518;-77